Time;durP1;ratioP1;P1;durP2;ratioP2;P2;SDS_P1;SDS_P2;PMS_P1;PMS_P2;Temp;Humidity;BMP_temperature;BMP_pressure;BME280_temperature;BME280_humidity;BME280_pressure;Samples;Min_cycle;Max_cycle;Signal;HPM_P1;HPM_P2
2022/06/18 00:01:57;;;;;;;2.05;1.63;;;23.00;88.90;;;;;;7395805;19;20150;-76
2022/06/18 00:04:25;;;;;;;2.10;1.60;;;22.90;88.70;;;;;;7394501;19;20253;-77
2022/06/18 00:06:55;;;;;;;2.80;1.27;;;23.00;88.50;;;;;;7394114;19;20155;-75
2022/06/18 00:09:25;;;;;;;1.95;1.73;;;23.10;88.60;;;;;;7396799;19;20131;-76
2022/06/18 00:14:42;;;;;;;1.85;1.52;;;22.90;88.60;;;;;;7397574;19;20146;-75
2022/06/18 00:17:17;;;;;;;3.72;1.50;;;23.00;88.50;;;;;;7393994;19;20134;-76
2022/06/18 00:19:43;;;;;;;2.63;1.65;;;23.10;88.10;;;;;;7393643;19;20170;-76
2022/06/18 00:22:14;;;;;;;2.38;1.60;;;23.10;89.70;;;;;;7395970;19;20159;-76
2022/06/18 00:24:41;;;;;;;3.67;2.15;;;23.10;88.60;;;;;;7393490;19;20614;-77
2022/06/18 00:27:12;;;;;;;3.08;2.03;;;22.90;89.50;;;;;;7395241;19;20149;-76
2022/06/18 00:29:38;;;;;;;2.05;1.50;;;23.00;89.30;;;;;;7394673;19;20137;-76
2022/06/18 00:32:05;;;;;;;2.00;1.52;;;23.00;88.60;;;;;;7395454;19;20123;-75
2022/06/18 00:34:30;;;;;;;3.88;1.58;;;23.00;89.10;;;;;;7393488;19;20134;-76
2022/06/18 00:36:57;;;;;;;1.83;1.50;;;23.00;89.30;;;;;;7394076;19;20135;-76
2022/06/18 00:39:24;;;;;;;2.05;1.33;;;22.80;89.30;;;;;;7391667;19;20144;-76
2022/06/18 00:41:53;;;;;;;5.20;3.08;;;22.60;89.80;;;;;;7393306;19;20167;-75
2022/06/18 00:44:19;;;;;;;2.28;1.65;;;22.50;89.80;;;;;;7393900;19;20138;-77
2022/06/18 00:47:16;;;;;;;1.30;1.10;;;22.40;90.30;;;;;;7392300;19;20353;-75
2022/06/18 00:50:28;;;;;;;1.80;1.50;;;22.20;90.50;;;;;;7395818;19;20139;-76
2022/06/18 00:52:59;;;;;;;1.80;1.40;;;21.90;90.70;;;;;;7391135;19;20150;-76
2022/06/18 00:55:41;;;;;;;2.33;1.42;;;21.70;91.00;;;;;;7394018;19;20732;-76
2022/06/18 00:58:19;;;;;;;1.40;1.30;;;21.90;91.20;;;;;;7390893;19;20154;-75
2022/06/18 01:00:48;;;;;;;2.22;1.70;;;22.20;90.90;;;;;;7392395;19;20130;-76
2022/06/18 01:03:30;;;;;;;1.98;1.63;;;22.40;90.80;;;;;;7387767;19;20177;-76
2022/06/18 01:05:59;;;;;;;2.20;1.70;;;22.10;91.20;;;;;;7391436;19;20150;-76
2022/06/18 01:08:28;;;;;;;2.50;1.60;;;22.20;91.20;;;;;;7394831;19;20138;-76
2022/06/18 01:11:04;;;;;;;2.13;1.80;;;22.30;91.10;;;;;;7391861;19;20142;-76
2022/06/18 01:13:39;;;;;;;2.65;1.50;;;22.20;91.10;;;;;;7389433;19;20499;-76
2022/06/18 01:16:07;;;;;;;2.58;1.58;;;22.00;91.70;;;;;;7390193;19;20157;-76
2022/06/18 01:18:33;;;;;;;1.48;1.33;;;22.00;91.80;;;;;;7390617;19;20135;-76
2022/06/18 01:21:02;;;;;;;2.15;1.58;;;22.10;91.60;;;;;;7389979;19;20166;-76
2022/06/18 01:23:49;;;;;;;2.13;1.70;;;21.80;92.00;;;;;;7392500;19;20202;-76
2022/06/18 01:26:15;;;;;;;3.35;2.03;;;22.10;92.30;;;;;;7390700;19;20138;-76
2022/06/18 01:28:41;;;;;;;2.35;1.55;;;21.80;92.40;;;;;;7391459;19;20139;-76
2022/06/18 01:31:08;;;;;;;1.77;1.42;;;21.60;92.80;;;;;;7388208;19;20469;-75
2022/06/18 01:33:35;;;;;;;2.13;1.60;;;21.40;93.10;;;;;;7392473;19;20139;-76
2022/06/18 01:36:06;;;;;;;1.70;1.60;;;21.50;93.00;;;;;;7392821;19;20138;-75
2022/06/18 01:38:35;;;;;;;3.03;1.88;;;21.50;93.30;;;;;;7391157;19;20158;-76
2022/06/18 01:44:11;;;;;;;1.80;1.52;;;21.60;92.90;;;;;;7387659;19;20518;-76
2022/06/18 01:46:41;;;;;;;2.80;1.70;;;21.70;93.30;;;;;;7392127;19;20138;-74
2022/06/18 01:49:11;;;;;;;3.50;1.40;;;21.90;92.90;;;;;;7392295;19;20147;-74
2022/06/18 01:51:41;;;;;;;4.28;1.95;;;21.90;92.80;;;;;;7391952;19;20186;-76
2022/06/18 01:54:13;;;;;;;2.03;1.73;;;21.80;93.00;;;;;;7392584;19;20131;-76
2022/06/18 01:56:46;;;;;;;2.20;1.70;;;21.80;93.30;;;;;;7391291;19;20512;-76
2022/06/18 01:59:42;;;;;;;2.03;1.65;;;21.60;93.10;;;;;;7390087;19;20602;-77
2022/06/18 02:02:08;;;;;;;2.40;1.80;;;21.60;93.30;;;;;;7389656;19;20146;-75
2022/06/18 02:04:34;;;;;;;3.22;1.85;;;21.60;93.60;;;;;;7388961;19;20939;-76
2022/06/18 02:07:01;;;;;;;2.83;2.03;;;21.80;93.30;;;;;;7391809;19;20475;-77
2022/06/18 02:09:41;;;;;;;3.45;1.90;;;22.00;93.00;;;;;;7393196;19;20147;-75
2022/06/18 02:12:16;;;;;;;2.83;1.92;;;22.10;92.90;;;;;;7386826;19;20154;-76
2022/06/18 02:14:46;;;;;;;2.05;1.65;;;22.10;92.90;;;;;;7391004;19;20130;-75
2022/06/18 02:17:17;;;;;;;3.63;1.60;;;22.00;93.30;;;;;;7389045;19;20138;-75
2022/06/18 02:19:50;;;;;;;3.33;1.80;;;22.10;93.80;;;;;;7387680;19;20201;-77
2022/06/18 02:22:17;;;;;;;1.92;1.55;;;22.10;93.60;;;;;;7391482;19;20380;-75
2022/06/18 02:24:44;;;;;;;3.28;1.90;;;21.80;93.90;;;;;;7389326;19;20126;-76
2022/06/18 02:27:13;;;;;;;1.67;1.58;;;21.60;94.40;;;;;;7389834;19;20594;-76
2022/06/18 02:29:39;;;;;;;1.73;1.58;;;21.50;94.50;;;;;;7391843;19;20170;-76
2022/06/18 02:32:13;;;;;;;3.50;2.00;;;21.80;94.40;;;;;;7388050;19;20251;-77
2022/06/18 02:34:39;;;;;;;2.10;1.30;;;22.00;93.90;;;;;;7389729;19;20155;-74
2022/06/18 02:37:19;;;;;;;1.58;1.48;;;22.10;93.50;;;;;;7390160;19;20126;-76
2022/06/18 02:39:56;;;;;;;1.65;1.55;;;22.10;93.30;;;;;;7390411;19;20207;-76
2022/06/18 02:42:22;;;;;;;1.55;1.45;;;22.00;92.80;;;;;;7394502;19;20149;-76
2022/06/18 02:44:48;;;;;;;1.92;1.40;;;21.60;93.10;;;;;;7388092;19;20135;-76
2022/06/18 02:47:15;;;;;;;2.28;1.40;;;21.60;93.50;;;;;;7390811;19;20174;-76
2022/06/18 02:49:54;;;;;;;1.70;1.50;;;21.70;93.80;;;;;;7389928;19;20138;-76
2022/06/18 02:52:23;;;;;;;1.75;1.50;;;21.70;93.50;;;;;;7389766;19;20146;-76
2022/06/18 02:54:49;;;;;;;1.65;1.13;;;21.60;94.20;;;;;;7388564;19;20153;-76
2022/06/18 02:57:26;;;;;;;2.35;1.55;;;21.80;93.70;;;;;;7386058;19;20495;-76
2022/06/18 02:59:52;;;;;;;3.17;1.30;;;21.60;93.60;;;;;;7391555;19;20135;-75
2022/06/18 03:02:18;;;;;;;2.00;1.63;;;21.50;94.00;;;;;;7386462;19;20467;-76
2022/06/18 03:04:44;;;;;;;2.47;1.48;;;21.30;94.20;;;;;;7387615;19;20229;-76
2022/06/18 03:07:10;;;;;;;2.88;1.60;;;21.40;94.70;;;;;;7392509;19;20915;-75
2022/06/18 03:12:06;;;;;;;2.00;1.65;;;21.30;94.60;;;;;;7388622;19;20511;-76
2022/06/18 03:12:22;;;;;;;2.25;1.50;;;21.40;94.80;;;;;;7389560;19;20137;-76
2022/06/18 03:14:47;;;;;;;2.10;1.60;;;21.40;94.60;;;;;;7391102;19;20135;-76
2022/06/18 03:17:14;;;;;;;2.53;1.40;;;21.20;95.30;;;;;;7387022;19;20135;-74
2022/06/18 03:19:45;;;;;;;3.83;1.67;;;21.30;95.20;;;;;;7383134;19;20197;-76
2022/06/18 03:22:18;;;;;;;1.98;1.70;;;21.40;95.20;;;;;;7392121;19;20151;-77
2022/06/18 03:24:44;;;;;;;1.35;1.25;;;21.60;95.10;;;;;;7396865;19;20154;-75
2022/06/18 03:27:12;;;;;;;2.97;1.35;;;21.60;95.30;;;;;;7397939;19;20160;-76
2022/06/18 03:29:38;;;;;;;1.70;1.45;;;21.60;95.00;;;;;;7393716;19;20154;-75
2022/06/18 03:32:05;;;;;;;2.60;1.88;;;21.50;95.30;;;;;;7397006;19;20143;-75
2022/06/18 03:34:31;;;;;;;5.13;1.80;;;21.50;95.20;;;;;;7395087;19;20150;-75
2022/06/18 03:36:56;;;;;;;1.55;1.33;;;21.60;95.20;;;;;;7397858;19;20742;-76
2022/06/18 03:39:23;;;;;;;2.15;1.42;;;21.60;95.40;;;;;;7392287;19;20143;-75
2022/06/18 03:41:49;;;;;;;1.80;1.52;;;21.60;95.50;;;;;;7395649;19;20276;-77
2022/06/18 03:44:16;;;;;;;2.85;1.80;;;21.60;95.40;;;;;;7396484;19;20169;-76
2022/06/18 03:46:43;;;;;;;3.65;2.08;;;21.50;95.50;;;;;;7394945;19;20499;-75
2022/06/18 03:49:18;;;;;;;3.00;1.98;;;21.70;95.50;;;;;;7393488;19;20150;-75
2022/06/18 03:51:44;;;;;;;2.30;1.60;;;21.70;95.60;;;;;;7396213;19;20547;-75
2022/06/18 03:54:10;;;;;;;2.67;1.80;;;21.70;95.90;;;;;;7394786;19;20171;-76
2022/06/18 03:56:36;;;;;;;3.58;1.65;;;21.70;95.60;;;;;;7393684;19;20142;-77
2022/06/18 03:59:02;;;;;;;2.35;1.77;;;21.80;95.70;;;;;;7391785;19;20246;-75
2022/06/18 04:01:31;;;;;;;4.25;1.63;;;21.70;95.70;;;;;;7396033;19;20158;-75
2022/06/18 04:03:57;;;;;;;3.10;2.00;;;21.80;95.60;;;;;;7393293;19;20170;-74
2022/06/18 04:06:23;;;;;;;2.30;1.92;;;21.80;95.60;;;;;;7393992;19;20131;-75
2022/06/18 04:08:49;;;;;;;2.25;1.95;;;21.70;95.80;;;;;;7394551;19;20475;-75
2022/06/18 04:11:16;;;;;;;2.78;1.70;;;21.60;95.90;;;;;;7395589;19;20149;-76
2022/06/18 04:13:42;;;;;;;6.38;2.00;;;21.60;95.90;;;;;;7394514;19;20206;-74
2022/06/18 04:16:10;;;;;;;3.25;1.88;;;21.50;96.00;;;;;;7394904;19;20158;-76
2022/06/18 04:18:36;;;;;;;2.38;1.73;;;21.50;96.20;;;;;;7392487;19;20138;-76
2022/06/18 04:21:03;;;;;;;1.88;1.70;;;21.40;96.60;;;;;;7391810;19;20154;-76
2022/06/18 04:23:29;;;;;;;1.80;1.60;;;21.50;96.30;;;;;;7394056;19;20610;-75
2022/06/18 04:25:54;;;;;;;3.00;1.75;;;21.60;96.20;;;;;;7394347;19;20157;-75
2022/06/18 04:28:20;;;;;;;3.08;1.90;;;21.50;96.20;;;;;;7391502;19;20157;-76
2022/06/18 04:30:49;;;;;;;3.55;1.67;;;21.50;96.40;;;;;;7394383;19;20478;-74
2022/06/18 04:33:15;;;;;;;1.98;1.77;;;21.50;96.70;;;;;;7396097;19;20123;-75
2022/06/18 04:35:41;;;;;;;3.00;2.00;;;21.60;96.50;;;;;;7393805;19;20142;-75
2022/06/18 04:38:09;;;;;;;1.98;1.80;;;21.60;96.70;;;;;;7391998;19;20135;-76
2022/06/18 04:40:35;;;;;;;3.08;2.10;;;21.60;96.90;;;;;;7395124;19;20135;-74
2022/06/18 04:43:06;;;;;;;2.53;2.00;;;21.70;97.00;;;;;;7392853;19;20595;-75
2022/06/18 04:45:33;;;;;;;2.88;2.13;;;21.70;97.10;;;;;;7393590;19;20202;-76
2022/06/18 04:47:59;;;;;;;3.60;1.42;;;21.70;97.30;;;;;;7392514;19;20135;-75
2022/06/18 04:50:31;;;;;;;3.17;1.65;;;21.80;97.30;;;;;;7393253;19;20567;-74
2022/06/18 04:52:57;;;;;;;2.30;1.80;;;21.80;97.40;;;;;;7395781;19;20206;-74
2022/06/18 04:55:23;;;;;;;2.00;1.88;;;21.80;97.30;;;;;;7393028;19;20160;-75
2022/06/18 04:57:49;;;;;;;2.80;1.70;;;21.80;97.30;;;;;;7392858;19;20135;-76
2022/06/18 05:00:16;;;;;;;3.92;1.90;;;21.90;97.30;;;;;;7394142;19;20235;-76
2022/06/18 05:02:42;;;;;;;2.45;2.00;;;21.90;97.20;;;;;;7393607;19;20602;-76
2022/06/18 05:05:13;;;;;;;3.28;2.08;;;22.00;97.00;;;;;;7392016;19;20154;-75
2022/06/18 05:07:39;;;;;;;2.72;1.98;;;21.90;97.00;;;;;;7391943;19;20500;-75
2022/06/18 05:10:05;;;;;;;4.25;2.00;;;21.90;97.40;;;;;;7389738;19;20210;-76
2022/06/18 05:12:31;;;;;;;5.82;2.03;;;21.90;97.70;;;;;;7393580;19;20151;-77
2022/06/18 05:14:57;;;;;;;3.03;2.00;;;22.00;97.60;;;;;;7392493;19;20145;-77
2022/06/18 05:17:27;;;;;;;4.95;2.15;;;22.00;97.80;;;;;;7391401;19;20142;-77
2022/06/18 05:19:54;;;;;;;3.17;2.10;;;22.10;97.50;;;;;;7391922;19;20606;-76
2022/06/18 05:22:20;;;;;;;2.90;2.00;;;22.10;97.30;;;;;;7392183;19;20127;-76
2022/06/18 05:24:46;;;;;;;2.13;1.88;;;22.10;97.20;;;;;;7391177;19;20150;-76
2022/06/18 05:27:46;;;;;;;3.28;2.30;;;22.10;97.00;;;;;;7391932;19;20119;-75
2022/06/18 05:30:15;;;;;;;2.15;1.90;;;22.10;97.10;;;;;;7390642;19;20143;-76
2022/06/18 05:32:42;;;;;;;4.97;1.80;;;22.10;97.00;;;;;;7391866;19;20262;-76
2022/06/18 05:35:08;;;;;;;4.32;2.42;;;22.10;96.90;;;;;;7390377;19;20134;-76
2022/06/18 05:37:34;;;;;;;3.28;2.03;;;22.20;96.80;;;;;;7389605;19;20712;-76
2022/06/18 05:40:01;;;;;;;3.17;2.00;;;22.20;96.70;;;;;;7392999;19;20147;-78
2022/06/18 05:42:27;;;;;;;5.10;2.20;;;22.30;96.60;;;;;;7390743;19;20134;-75
2022/06/18 05:44:54;;;;;;;2.85;2.10;;;22.30;96.60;;;;;;7388485;19;20523;-77
2022/06/18 05:47:26;;;;;;;2.58;2.20;;;22.40;96.40;;;;;;7389925;19;20150;-77
2022/06/18 05:49:53;;;;;;;3.45;2.08;;;22.40;96.50;;;;;;7391407;19;20145;-75
2022/06/18 05:52:20;;;;;;;2.60;2.08;;;22.40;96.50;;;;;;7395410;19;20143;-74
2022/06/18 05:54:46;;;;;;;4.18;2.30;;;22.40;96.70;;;;;;7388756;19;20142;-75
2022/06/18 05:57:13;;;;;;;3.80;2.08;;;22.50;96.60;;;;;;7391044;19;20150;-77
2022/06/18 05:59:39;;;;;;;3.70;2.10;;;22.50;96.60;;;;;;7388902;19;20142;-74
2022/06/18 06:02:06;;;;;;;3.42;2.13;;;22.50;96.70;;;;;;7391006;19;20134;-77
2022/06/18 06:04:34;;;;;;;2.97;2.22;;;22.60;96.60;;;;;;7390423;19;20143;-76
2022/06/18 06:06:59;;;;;;;3.17;2.35;;;22.60;96.90;;;;;;7389792;19;20153;-78
2022/06/18 06:12:29;;;;;;;6.43;2.30;;;23.00;96.30;;;;;;7385900;19;20153;-75
2022/06/18 06:14:56;;;;;;;4.63;2.42;;;23.60;95.80;;;;;;7387716;19;20629;-74
2022/06/18 06:17:24;;;;;;;1.92;1.58;;;24.20;95.10;;;;;;7386664;19;20150;-75
2022/06/18 06:19:51;;;;;;;2.50;2.20;;;24.60;94.10;;;;;;7392132;19;20151;-74
2022/06/18 06:22:16;;;;;;;2.30;2.00;;;24.90;93.80;;;;;;7389367;19;21693;-75
2022/06/18 06:24:42;;;;;;;3.53;2.33;;;25.40;93.30;;;;;;7389764;19;20134;-76
2022/06/18 06:27:10;;;;;;;2.40;2.00;;;25.80;92.90;;;;;;7387762;19;20206;-76
2022/06/18 06:29:36;;;;;;;3.40;2.28;;;26.20;92.40;;;;;;7389149;19;20135;-74
2022/06/18 06:32:02;;;;;;;3.42;2.38;;;26.40;92.20;;;;;;7389535;19;20615;-73
2022/06/18 06:34:28;;;;;;;5.30;2.45;;;26.60;92.00;;;;;;7390496;19;20130;-76
2022/06/18 06:36:56;;;;;;;4.82;2.42;;;26.70;91.90;;;;;;7389900;19;20210;-77
2022/06/18 06:39:22;;;;;;;5.95;2.85;;;26.70;91.90;;;;;;7390316;19;20622;-75
2022/06/18 06:41:48;;;;;;;2.92;2.20;;;26.70;91.90;;;;;;7391002;19;20138;-76
2022/06/18 06:44:14;;;;;;;5.18;2.90;;;26.70;91.90;;;;;;7390449;19;20172;-77
2022/06/18 06:46:39;;;;;;;5.07;2.50;;;26.80;91.90;;;;;;7387628;19;20135;-75
2022/06/18 06:49:05;;;;;;;2.95;2.20;;;27.10;91.50;;;;;;7388905;19;20158;-76
2022/06/18 06:51:34;;;;;;;2.72;1.88;;;27.20;91.30;;;;;;7389739;19;20834;-77
2022/06/18 06:54:00;;;;;;;2.63;2.05;;;27.20;91.30;;;;;;7389794;19;20151;-76
2022/06/18 06:59:10;;;;;;;2.58;2.00;;;27.50;91.10;;;;;;7396653;19;20618;-77
2022/06/18 07:01:36;;;;;;;3.95;2.13;;;27.60;91.00;;;;;;7394405;19;20134;-77
2022/06/18 07:04:04;;;;;;;5.47;2.45;;;27.70;90.90;;;;;;7396278;19;20155;-75
2022/06/18 07:06:33;;;;;;;4.47;2.10;;;28.10;90.60;;;;;;7396487;19;20142;-75
2022/06/18 07:08:59;;;;;;;2.83;2.00;;;28.30;90.40;;;;;;7399213;19;20146;-77
2022/06/18 07:11:24;;;;;;;3.00;2.15;;;28.60;90.00;;;;;;7396308;19;20463;-77
2022/06/18 07:13:50;;;;;;;2.22;1.92;;;28.80;89.40;;;;;;7398779;19;20569;-74
2022/06/18 07:16:17;;;;;;;2.83;2.20;;;28.90;89.40;;;;;;7396616;19;20686;-77
2022/06/18 07:18:43;;;;;;;3.35;1.98;;;28.80;90.00;;;;;;7392774;19;20127;-74
2022/06/18 07:21:15;;;;;;;2.92;2.08;;;28.90;89.50;;;;;;7397135;19;20628;-73
2022/06/18 07:23:42;;;;;;;3.15;2.00;;;29.10;88.80;;;;;;7394504;19;20176;-76
2022/06/18 07:26:10;;;;;;;2.85;1.88;;;29.10;88.70;;;;;;7396618;19;20146;-75
2022/06/18 07:28:36;;;;;;;2.00;1.80;;;29.10;88.50;;;;;;7395740;19;20130;-72
2022/06/18 07:31:03;;;;;;;4.45;2.03;;;29.00;88.80;;;;;;7396940;19;20150;-76
2022/06/18 07:33:32;;;;;;;5.70;2.35;;;28.90;88.90;;;;;;7399658;19;20530;-73
2022/06/18 07:35:58;;;;;;;3.25;2.00;;;28.80;89.20;;;;;;7395102;19;20131;-76
2022/06/18 07:38:24;;;;;;;2.28;1.95;;;28.80;89.60;;;;;;7394300;19;20167;-78
2022/06/18 07:40:53;;;;;;;3.22;1.92;;;28.80;89.50;;;;;;7395595;19;20135;-73
2022/06/18 07:43:42;;;;;;;2.40;2.20;;;28.90;89.40;;;;;;7392129;19;20138;-77
2022/06/18 07:46:10;;;;;;;2.40;2.20;;;29.10;88.60;;;;;;7394096;19;20479;-71
2022/06/18 07:48:39;;;;;;;4.30;2.28;;;29.40;88.30;;;;;;7398463;19;20139;-73
2022/06/18 07:51:06;;;;;;;2.13;1.92;;;29.50;87.90;;;;;;7394328;19;20134;-75
2022/06/18 07:53:33;;;;;;;4.50;2.10;;;29.50;88.00;;;;;;7394426;19;20141;-77
2022/06/18 07:55:59;;;;;;;2.20;1.67;;;29.50;87.90;;;;;;7395567;19;20202;-73
2022/06/18 07:58:26;;;;;;;1.85;1.67;;;29.50;87.70;;;;;;7394337;19;20137;-73
2022/06/18 08:00:53;;;;;;;2.75;2.13;;;29.70;87.30;;;;;;7397785;19;20160;-73
2022/06/18 08:03:22;;;;;;;3.45;1.83;;;29.80;87.10;;;;;;7394373;19;20240;-78
2022/06/18 08:05:49;;;;;;;2.58;2.10;;;29.90;87.10;;;;;;7396960;19;20365;-74
2022/06/18 08:08:16;;;;;;;2.17;1.70;;;29.90;87.10;;;;;;7390564;19;20551;-74
2022/06/18 08:10:47;;;;;;;3.25;2.00;;;30.10;86.60;;;;;;7391251;19;20134;-74
2022/06/18 08:13:13;;;;;;;2.47;2.28;;;30.40;86.20;;;;;;7395363;19;20151;-77
2022/06/18 08:15:40;;;;;;;4.70;1.70;;;30.60;85.60;;;;;;7396168;19;20131;-76
2022/06/18 08:18:06;;;;;;;3.05;2.13;;;30.60;85.20;;;;;;7390671;19;20480;-76
2022/06/18 08:20:33;;;;;;;2.50;1.92;;;30.60;84.80;;;;;;7392183;19;20159;-75
2022/06/18 08:23:01;;;;;;;4.50;1.60;;;30.70;84.60;;;;;;7395421;19;20142;-75
2022/06/18 08:25:30;;;;;;;2.35;1.80;;;30.70;84.40;;;;;;7396733;19;20138;-75
2022/06/18 08:27:59;;;;;;;3.05;2.03;;;30.60;84.30;;;;;;7390350;19;20147;-75
2022/06/18 08:30:26;;;;;;;3.00;1.77;;;30.80;84.50;;;;;;7391580;19;20493;-76
2022/06/18 08:32:52;;;;;;;1.92;1.60;;;30.90;83.00;;;;;;7392616;19;20641;-76
2022/06/18 08:35:17;;;;;;;1.70;1.60;;;31.00;83.10;;;;;;7394181;19;20214;-75
2022/06/18 08:37:44;;;;;;;3.40;1.92;;;31.20;81.80;;;;;;7392089;19;20225;-75
2022/06/18 08:40:34;;;;;;;3.80;1.60;;;31.40;81.10;;;;;;7394536;19;20468;-75
2022/06/18 08:43:07;;;;;;;5.38;2.00;;;31.40;81.40;;;;;;7394752;19;20146;-76
2022/06/18 08:45:44;;;;;;;5.03;1.77;;;31.20;81.00;;;;;;7390982;19;20135;-76
2022/06/18 08:48:57;;;;;;;1.60;1.50;;;31.10;82.20;;;;;;7394150;19;20138;-76
2022/06/18 08:51:25;;;;;;;2.25;1.80;;;31.30;81.10;;;;;;7389619;19;20154;-76
2022/06/18 08:54:19;;;;;;;3.97;1.80;;;31.30;81.30;;;;;;7391105;19;20138;-75
2022/06/18 08:57:01;;;;;;;2.88;1.80;;;31.10;81.80;;;;;;7388519;19;20154;-75
2022/06/18 08:59:35;;;;;;;4.15;1.80;;;30.90;82.70;;;;;;7392250;19;20210;-76
2022/06/18 09:02:18;;;;;;;3.10;1.90;;;30.70;82.80;;;;;;7390005;19;20149;-75
2022/06/18 09:05:16;;;;;;;4.63;1.70;;;30.40;83.50;;;;;;7391353;19;20197;-76
2022/06/18 09:08:30;;;;;;;2.08;1.88;;;30.20;84.20;;;;;;7395495;19;20143;-75
2022/06/18 09:11:29;;;;;;;1.83;1.73;;;30.20;83.60;;;;;;7388660;19;20654;-75
2022/06/18 09:14:01;;;;;;;3.25;1.90;;;30.20;83.00;;;;;;7392942;19;20192;-75
2022/06/18 09:17:02;;;;;;;1.95;1.73;;;30.30;83.00;;;;;;7392745;19;20225;-75
2022/06/18 09:19:29;;;;;;;1.85;1.70;;;30.30;82.90;;;;;;7387752;19;20169;-75
2022/06/18 09:21:58;;;;;;;2.70;1.60;;;30.30;82.80;;;;;;7392657;19;20474;-75
2022/06/18 09:24:32;;;;;;;2.78;1.77;;;30.20;82.80;;;;;;7393458;19;20194;-75
2022/06/18 09:27:30;;;;;;;3.33;2.17;;;30.20;83.20;;;;;;7389218;19;20520;-75
2022/06/18 09:30:06;;;;;;;2.20;1.88;;;30.40;82.80;;;;;;7390162;19;20206;-75
2022/06/18 09:32:43;;;;;;;3.33;1.70;;;30.50;81.30;;;;;;7393726;19;20498;-74
2022/06/18 09:35:37;;;;;;;2.40;2.00;;;30.40;80.50;;;;;;7392861;19;20134;-75
2022/06/18 09:38:55;;;;;;;10.68;5.35;;;30.40;80.30;;;;;;7386400;19;20616;-76
2022/06/18 09:41:45;;;;;;;1.50;1.40;;;30.60;80.10;;;;;;7388234;19;20198;-75
2022/06/18 09:44:57;;;;;;;3.05;1.80;;;30.60;78.90;;;;;;7391826;19;20157;-74
2022/06/18 09:47:41;;;;;;;2.90;1.70;;;30.50;78.80;;;;;;7388528;19;20153;-75
2022/06/18 09:50:19;;;;;;;2.80;1.50;;;30.80;80.10;;;;;;7390342;19;20138;-76
2022/06/18 09:52:50;;;;;;;2.45;1.38;;;31.50;77.70;;;;;;7391643;19;20158;-75
2022/06/18 09:55:21;;;;;;;1.80;1.70;;;31.50;77.00;;;;;;7390381;19;20137;-76
2022/06/18 09:57:52;;;;;;;1.92;1.80;;;31.40;76.20;;;;;;7388479;19;20671;-75
2022/06/18 10:00:24;;;;;;;1.60;1.50;;;31.20;76.60;;;;;;7388104;19;20135;-76
2022/06/18 10:03:14;;;;;;;2.42;1.20;;;31.00;77.00;;;;;;7393245;19;20210;-75
2022/06/18 10:08:38;;;;;;;1.95;1.50;;;31.20;75.70;;;;;;7387838;19;20156;-76
2022/06/18 10:11:07;;;;;;;3.80;1.70;;;31.10;76.60;;;;;;7390671;19;20154;-75
2022/06/18 10:13:40;;;;;;;2.53;1.42;;;31.20;75.60;;;;;;7388989;19;20151;-75
2022/06/18 10:16:16;;;;;;;5.68;1.85;;;31.20;74.00;;;;;;7391232;19;20127;-76
2022/06/18 10:18:55;;;;;;;1.60;1.33;;;31.30;72.20;;;;;;7391087;19;20130;-76
2022/06/18 10:21:39;;;;;;;1.45;1.35;;;31.20;73.50;;;;;;7392053;19;20158;-76
2022/06/18 10:24:15;;;;;;;2.15;1.45;;;31.30;72.40;;;;;;7393321;19;20138;-76
2022/06/18 10:26:55;;;;;;;2.58;1.30;;;31.20;72.50;;;;;;7388210;19;20594;-76
2022/06/18 10:29:49;;;;;;;1.60;1.50;;;31.00;72.00;;;;;;7388380;19;20268;-77
2022/06/18 10:32:30;;;;;;;2.40;1.30;;;30.90;72.90;;;;;;7389974;19;20142;-75
2022/06/18 10:34:59;;;;;;;1.83;1.70;;;31.40;68.10;;;;;;7390779;19;20146;-76
2022/06/18 10:37:47;;;;;;;1.50;1.10;;;31.50;67.20;;;;;;7390034;19;20179;-77
2022/06/18 10:40:34;;;;;;;1.27;0.95;;;31.60;65.30;;;;;;7388074;19;20149;-75
2022/06/18 10:43:15;;;;;;;2.35;1.20;;;31.40;65.90;;;;;;7388680;19;20234;-76
2022/06/18 10:45:54;;;;;;;3.72;1.40;;;31.20;67.50;;;;;;7391140;19;20176;-76
2022/06/18 10:48:24;;;;;;;1.45;1.30;;;31.20;68.80;;;;;;7389943;19;20155;-76
2022/06/18 10:50:53;;;;;;;16.48;12.45;;;31.40;67.50;;;;;;7390473;19;20138;-77
2022/06/18 10:53:22;;;;;;;2.85;1.60;;;31.60;66.20;;;;;;7388181;19;20139;-76
2022/06/18 10:56:04;;;;;;;1.38;1.08;;;31.80;65.40;;;;;;7391005;19;20166;-76
2022/06/18 10:58:30;;;;;;;1.00;0.90;;;31.90;65.00;;;;;;7387712;19;20222;-75
2022/06/18 11:01:11;;;;;;;2.20;1.00;;;32.00;65.80;;;;;;7386970;19;20578;-75
2022/06/18 11:03:37;;;;;;;1.30;1.10;;;32.10;64.90;;;;;;7386800;19;20302;-75
2022/06/18 11:06:10;;;;;;;1.98;1.15;;;32.10;65.00;;;;;;7390867;19;20155;-74
2022/06/18 11:08:37;;;;;;;2.45;1.55;;;32.10;65.20;;;;;;7387184;19;20230;-76
2022/06/18 11:11:13;;;;;;;2.10;1.30;;;32.00;65.50;;;;;;7391447;19;20135;-75
2022/06/18 11:13:44;;;;;;;5.60;1.17;;;31.80;65.50;;;;;;7385922;19;20159;-75
2022/06/18 11:16:15;;;;;;;1.75;1.13;;;31.70;66.40;;;;;;7388463;19;20162;-75
2022/06/18 11:18:59;;;;;;;2.08;1.23;;;31.80;65.10;;;;;;7390690;19;20143;-75
2022/06/18 11:21:36;;;;;;;1.55;0.93;;;31.90;64.70;;;;;;7387543;19;20174;-76
2022/06/18 11:24:15;;;;;;;2.67;1.20;;;32.00;65.30;;;;;;7388513;19;20138;-76
2022/06/18 11:26:50;;;;;;;1.35;0.85;;;32.10;66.30;;;;;;7386557;19;20210;-75
2022/06/18 11:29:27;;;;;;;3.83;1.35;;;32.20;65.70;;;;;;7390850;19;20134;-75
2022/06/18 11:31:57;;;;;;;2.20;0.95;;;32.30;65.80;;;;;;7389497;19;20153;-75
2022/06/18 11:34:44;;;;;;;4.22;1.27;;;32.30;65.80;;;;;;7389478;19;20143;-75
2022/06/18 11:37:25;;;;;;;4.20;1.40;;;32.30;64.10;;;;;;7389560;19;20168;-74
2022/06/18 11:40:03;;;;;;;1.55;1.15;;;32.40;64.90;;;;;;7385877;19;20134;-74
2022/06/18 11:42:46;;;;;;;2.10;1.50;;;32.50;64.90;;;;;;7387875;19;20145;-75
2022/06/18 11:45:20;;;;;;;3.78;1.58;;;32.60;65.80;;;;;;7397549;19;20716;-76
2022/06/18 11:47:49;;;;;;;5.32;1.45;;;32.50;65.50;;;;;;7394687;19;20209;-77
2022/06/18 11:50:23;;;;;;;3.22;1.27;;;32.70;65.00;;;;;;7394514;19;20134;-76
2022/06/18 11:53:16;;;;;;;5.45;1.52;;;32.70;65.30;;;;;;7396439;19;20146;-75
2022/06/18 11:55:50;;;;;;;3.05;1.50;;;32.70;65.50;;;;;;7398631;19;20178;-75
2022/06/18 11:58:44;;;;;;;1.92;1.17;;;32.60;66.30;;;;;;7392825;19;20470;-75
2022/06/18 12:01:35;;;;;;;4.75;1.73;;;32.50;64.50;;;;;;7394872;19;20137;-76
2022/06/18 12:04:43;;;;;;;1.52;1.13;;;32.50;64.30;;;;;;7393112;19;20157;-76
2022/06/18 12:07:24;;;;;;;3.97;1.42;;;32.50;64.60;;;;;;7393170;19;20139;-76
2022/06/18 12:09:51;;;;;;;1.90;1.30;;;32.50;62.40;;;;;;7396004;19;20138;-76
2022/06/18 12:12:27;;;;;;;4.75;1.42;;;32.50;63.10;;;;;;7395536;19;20131;-75
2022/06/18 12:15:24;;;;;;;4.07;1.40;;;32.50;62.50;;;;;;7394900;19;20141;-75
2022/06/18 12:18:02;;;;;;;7.10;3.00;;;32.50;62.40;;;;;;7393189;19;20495;-75
2022/06/18 12:20:49;;;;;;;2.55;1.60;;;32.70;61.80;;;;;;7393378;19;20150;-75
2022/06/18 12:23:34;;;;;;;2.60;1.48;;;32.60;63.20;;;;;;7391488;19;20163;-76
2022/06/18 12:26:21;;;;;;;4.00;2.65;;;32.70;62.20;;;;;;7391695;19;20143;-76
2022/06/18 12:29:11;;;;;;;3.28;1.42;;;32.70;62.10;;;;;;7394741;19;20149;-76
2022/06/18 12:32:20;;;;;;;7.97;1.75;;;32.60;62.50;;;;;;7394996;19;20484;-75
2022/06/18 12:35:02;;;;;;;5.90;2.42;;;32.70;60.70;;;;;;7389471;19;20142;-75
2022/06/18 12:38:10;;;;;;;4.90;2.15;;;32.70;61.60;;;;;;7396056;19;20149;-75
2022/06/18 12:40:38;;;;;;;4.45;1.90;;;32.80;61.80;;;;;;7394993;19;20159;-74
2022/06/18 12:43:25;;;;;;;9.35;1.70;;;32.80;61.50;;;;;;7399253;19;20158;-75
2022/06/18 12:46:03;;;;;;;10.43;1.95;;;32.80;61.20;;;;;;7391223;19;20158;-75
2022/06/18 12:48:51;;;;;;;7.28;2.08;;;32.90;62.00;;;;;;7395501;19;20174;-75
2022/06/18 12:51:51;;;;;;;7.35;1.98;;;33.10;62.40;;;;;;7393789;19;20278;-76
2022/06/18 12:55:02;;;;;;;7.47;1.95;;;33.00;62.80;;;;;;7387405;19;20174;-76
2022/06/18 12:57:44;;;;;;;8.10;2.20;;;33.10;63.20;;;;;;7392620;19;20604;-75
2022/06/18 13:00:19;;;;;;;8.00;2.03;;;33.10;62.60;;;;;;7394633;19;20154;-76
2022/06/18 13:03:27;;;;;;;3.83;1.80;;;32.70;63.20;;;;;;7390321;19;20154;-76
2022/06/18 13:06:09;;;;;;;4.63;1.83;;;33.00;64.40;;;;;;7394140;19;20151;-76
2022/06/18 13:09:06;;;;;;;8.68;1.88;;;33.00;64.10;;;;;;7391567;19;20198;-75
2022/06/18 13:11:38;;;;;;;11.68;2.45;;;33.10;64.20;;;;;;7395277;19;20201;-76
2022/06/18 13:14:12;;;;;;;9.45;1.98;;;33.10;64.40;;;;;;7392775;19;20207;-76
2022/06/18 13:16:51;;;;;;;7.53;2.00;;;33.10;64.80;;;;;;7393386;19;20130;-75
2022/06/18 13:19:28;;;;;;;4.68;1.80;;;33.10;65.60;;;;;;7395306;19;20643;-76
2022/06/18 13:21:54;;;;;;;9.23;1.88;;;33.00;66.30;;;;;;7393986;19;20158;-75
2022/06/18 13:30:24;;;;;;;5.38;1.90;;;33.10;67.10;;;;;;7392152;19;20223;-76
2022/06/18 13:33:06;;;;;;;4.88;1.60;;;33.00;65.60;;;;;;7394119;19;20147;-75
2022/06/18 13:35:41;;;;;;;5.35;2.00;;;33.00;66.00;;;;;;7391696;19;20153;-76
2022/06/18 13:38:30;;;;;;;4.55;1.80;;;32.90;67.20;;;;;;7394986;19;20210;-76